sensor_id;sensor_type;location;lat;lon;timestamp;temperature;humidity
27544;DHT22;17996;51.056;3.656;2023-02-15T00:01:51;5.30;99.90
27544;DHT22;17996;51.056;3.656;2023-02-15T00:04:20;5.50;99.90
27544;DHT22;17996;51.056;3.656;2023-02-15T00:06:47;5.40;99.90
27544;DHT22;17996;51.056;3.656;2023-02-15T00:09:12;5.30;99.90
27544;DHT22;17996;51.056;3.656;2023-02-15T00:11:39;5.30;99.90
27544;DHT22;17996;51.056;3.656;2023-02-15T00:16:32;5.20;99.90
27544;DHT22;17996;51.056;3.656;2023-02-15T00:18:57;5.20;99.90
27544;DHT22;17996;51.056;3.656;2023-02-15T00:21:27;5.20;99.90
27544;DHT22;17996;51.056;3.656;2023-02-15T00:23:53;5.10;99.90
27544;DHT22;17996;51.056;3.656;2023-02-15T00:26:18;5.10;99.90
27544;DHT22;17996;51.056;3.656;2023-02-15T00:28:44;5.00;99.90
27544;DHT22;17996;51.056;3.656;2023-02-15T00:31:11;5.00;99.90
27544;DHT22;17996;51.056;3.656;2023-02-15T00:33:39;5.20;99.90
27544;DHT22;17996;51.056;3.656;2023-02-15T00:36:06;5.00;99.90
27544;DHT22;17996;51.056;3.656;2023-02-15T00:38:33;5.00;99.90
27544;DHT22;17996;51.056;3.656;2023-02-15T00:41:00;5.00;99.90
27544;DHT22;17996;51.056;3.656;2023-02-15T00:43:27;4.90;99.90
27544;DHT22;17996;51.056;3.656;2023-02-15T00:45:53;4.90;99.90
27544;DHT22;17996;51.056;3.656;2023-02-15T00:48:20;4.80;99.90
27544;DHT22;17996;51.056;3.656;2023-02-15T00:50:50;4.80;99.90
27544;DHT22;17996;51.056;3.656;2023-02-15T00:53:16;4.80;99.90
27544;DHT22;17996;51.056;3.656;2023-02-15T00:55:42;4.80;99.90
27544;DHT22;17996;51.056;3.656;2023-02-15T00:58:09;4.80;99.90
27544;DHT22;17996;51.056;3.656;2023-02-15T01:00:36;4.80;99.90
27544;DHT22;17996;51.056;3.656;2023-02-15T01:03:02;4.80;99.90
27544;DHT22;17996;51.056;3.656;2023-02-15T01:05:28;4.70;99.90
27544;DHT22;17996;51.056;3.656;2023-02-15T01:07:55;4.90;99.90
27544;DHT22;17996;51.056;3.656;2023-02-15T01:10:21;4.70;99.90
27544;DHT22;17996;51.056;3.656;2023-02-15T01:12:47;4.70;99.90
27544;DHT22;17996;51.056;3.656;2023-02-15T01:15:13;4.70;99.90
27544;DHT22;17996;51.056;3.656;2023-02-15T01:17:39;4.60;99.90
27544;DHT22;17996;51.056;3.656;2023-02-15T01:20:05;4.70;99.90
27544;DHT22;17996;51.056;3.656;2023-02-15T01:22:31;4.60;99.90
27544;DHT22;17996;51.056;3.656;2023-02-15T01:24:57;4.60;99.90
27544;DHT22;17996;51.056;3.656;2023-02-15T01:27:23;4.50;99.90
27544;DHT22;17996;51.056;3.656;2023-02-15T01:29:48;4.60;99.90
27544;DHT22;17996;51.056;3.656;2023-02-15T01:32:14;4.60;99.90
27544;DHT22;17996;51.056;3.656;2023-02-15T01:34:40;4.50;99.90
27544;DHT22;17996;51.056;3.656;2023-02-15T01:37:05;4.70;99.90
27544;DHT22;17996;51.056;3.656;2023-02-15T01:39:31;4.60;99.90
27544;DHT22;17996;51.056;3.656;2023-02-15T01:41:56;4.40;99.90
27544;DHT22;17996;51.056;3.656;2023-02-15T01:47:42;4.50;99.90
27544;DHT22;17996;51.056;3.656;2023-02-15T01:52:55;4.40;99.90
27544;DHT22;17996;51.056;3.656;2023-02-15T01:55:23;4.40;99.90
27544;DHT22;17996;51.056;3.656;2023-02-15T01:57:51;4.30;99.90
27544;DHT22;17996;51.056;3.656;2023-02-15T02:00:17;4.40;99.90
27544;DHT22;17996;51.056;3.656;2023-02-15T02:02:46;4.30;99.90
27544;DHT22;17996;51.056;3.656;2023-02-15T02:05:12;4.50;99.90
27544;DHT22;17996;51.056;3.656;2023-02-15T02:07:42;4.30;99.90
27544;DHT22;17996;51.056;3.656;2023-02-15T02:10:12;4.20;99.90
27544;DHT22;17996;51.056;3.656;2023-02-15T02:12:40;4.30;99.90
27544;DHT22;17996;51.056;3.656;2023-02-15T02:15:08;4.20;99.90
27544;DHT22;17996;51.056;3.656;2023-02-15T02:17:47;4.20;99.90
27544;DHT22;17996;51.056;3.656;2023-02-15T02:20:30;4.10;99.90
27544;DHT22;17996;51.056;3.656;2023-02-15T02:26:20;4.30;99.90
27544;DHT22;17996;51.056;3.656;2023-02-15T02:34:07;4.00;99.90
27544;DHT22;17996;51.056;3.656;2023-02-15T02:36:57;4.00;99.90
27544;DHT22;17996;51.056;3.656;2023-02-15T02:39:44;4.00;99.90
27544;DHT22;17996;51.056;3.656;2023-02-15T02:42:41;4.00;99.90
27544;DHT22;17996;51.056;3.656;2023-02-15T02:45:13;4.00;99.90
27544;DHT22;17996;51.056;3.656;2023-02-15T02:47:58;4.00;99.90
27544;DHT22;17996;51.056;3.656;2023-02-15T02:50:29;4.00;99.90
27544;DHT22;17996;51.056;3.656;2023-02-15T02:52:57;4.00;99.90
27544;DHT22;17996;51.056;3.656;2023-02-15T02:55:39;3.90;99.90
27544;DHT22;17996;51.056;3.656;2023-02-15T02:58:17;4.00;99.90
27544;DHT22;17996;51.056;3.656;2023-02-15T03:03:36;3.90;99.90
27544;DHT22;17996;51.056;3.656;2023-02-15T03:06:51;3.90;99.90
27544;DHT22;17996;51.056;3.656;2023-02-15T03:09:09;3.80;99.90
27544;DHT22;17996;51.056;3.656;2023-02-15T03:11:41;3.80;99.90
27544;DHT22;17996;51.056;3.656;2023-02-15T03:14:08;3.80;99.90
27544;DHT22;17996;51.056;3.656;2023-02-15T03:16:34;3.80;99.90
27544;DHT22;17996;51.056;3.656;2023-02-15T03:19:07;3.70;99.90
27544;DHT22;17996;51.056;3.656;2023-02-15T03:21:47;3.70;99.90
27544;DHT22;17996;51.056;3.656;2023-02-15T03:24:19;3.70;99.90
27544;DHT22;17996;51.056;3.656;2023-02-15T03:26:48;3.70;99.90
27544;DHT22;17996;51.056;3.656;2023-02-15T03:29:16;3.70;99.90
27544;DHT22;17996;51.056;3.656;2023-02-15T03:31:45;3.60;99.90
27544;DHT22;17996;51.056;3.656;2023-02-15T03:34:13;3.60;99.90
27544;DHT22;17996;51.056;3.656;2023-02-15T03:39:56;3.60;99.90
27544;DHT22;17996;51.056;3.656;2023-02-15T03:42:35;3.60;99.90
27544;DHT22;17996;51.056;3.656;2023-02-15T03:45:09;3.60;99.90
27544;DHT22;17996;51.056;3.656;2023-02-15T03:47:38;3.60;99.90
27544;DHT22;17996;51.056;3.656;2023-02-15T03:50:12;3.60;99.90
27544;DHT22;17996;51.056;3.656;2023-02-15T03:52:59;3.60;99.90
27544;DHT22;17996;51.056;3.656;2023-02-15T03:55:26;3.60;99.90
27544;DHT22;17996;51.056;3.656;2023-02-15T03:57:53;3.60;99.90
27544;DHT22;17996;51.056;3.656;2023-02-15T04:00:40;3.60;99.90
27544;DHT22;17996;51.056;3.656;2023-02-15T04:03:39;3.60;99.90
27544;DHT22;17996;51.056;3.656;2023-02-15T04:06:06;3.50;99.90
27544;DHT22;17996;51.056;3.656;2023-02-15T04:08:31;3.60;99.90
27544;DHT22;17996;51.056;3.656;2023-02-15T04:11:16;3.50;99.90
27544;DHT22;17996;51.056;3.656;2023-02-15T04:13:42;3.50;99.90
27544;DHT22;17996;51.056;3.656;2023-02-15T04:16:07;3.50;99.90
27544;DHT22;17996;51.056;3.656;2023-02-15T04:18:39;3.50;99.90
27544;DHT22;17996;51.056;3.656;2023-02-15T04:21:25;3.50;99.90
27544;DHT22;17996;51.056;3.656;2023-02-15T04:24:10;3.40;99.90
27544;DHT22;17996;51.056;3.656;2023-02-15T04:26:55;3.50;99.90
27544;DHT22;17996;51.056;3.656;2023-02-15T04:29:24;3.40;99.90
27544;DHT22;17996;51.056;3.656;2023-02-15T04:31:52;3.40;99.90
27544;DHT22;17996;51.056;3.656;2023-02-15T04:34:17;3.40;99.90
27544;DHT22;17996;51.056;3.656;2023-02-15T04:36:43;3.40;99.90
27544;DHT22;17996;51.056;3.656;2023-02-15T04:39:11;3.40;99.90
27544;DHT22;17996;51.056;3.656;2023-02-15T04:41:37;3.30;99.90
27544;DHT22;17996;51.056;3.656;2023-02-15T04:44:03;3.40;99.90
27544;DHT22;17996;51.056;3.656;2023-02-15T04:46:29;3.40;99.90
27544;DHT22;17996;51.056;3.656;2023-02-15T04:48:55;3.40;99.90
27544;DHT22;17996;51.056;3.656;2023-02-15T04:51:21;3.40;99.90
27544;DHT22;17996;51.056;3.656;2023-02-15T04:53:47;3.40;99.90
27544;DHT22;17996;51.056;3.656;2023-02-15T04:56:12;3.60;99.90
27544;DHT22;17996;51.056;3.656;2023-02-15T04:58:38;3.40;99.90
27544;DHT22;17996;51.056;3.656;2023-02-15T05:01:09;3.40;99.90
27544;DHT22;17996;51.056;3.656;2023-02-15T05:03:35;3.40;99.90
27544;DHT22;17996;51.056;3.656;2023-02-15T05:06:01;3.30;99.90
27544;DHT22;17996;51.056;3.656;2023-02-15T05:08:27;3.50;99.90
27544;DHT22;17996;51.056;3.656;2023-02-15T05:10:53;3.30;99.90
27544;DHT22;17996;51.056;3.656;2023-02-15T05:13:19;3.30;99.90
27544;DHT22;17996;51.056;3.656;2023-02-15T05:15:48;3.30;99.90
27544;DHT22;17996;51.056;3.656;2023-02-15T05:18:14;3.30;99.90
27544;DHT22;17996;51.056;3.656;2023-02-15T05:20:40;3.30;99.90
27544;DHT22;17996;51.056;3.656;2023-02-15T05:23:06;3.30;99.90
27544;DHT22;17996;51.056;3.656;2023-02-15T05:25:31;3.50;99.90
27544;DHT22;17996;51.056;3.656;2023-02-15T05:28:15;3.20;99.90
27544;DHT22;17996;51.056;3.656;2023-02-15T05:30:47;3.20;99.90
27544;DHT22;17996;51.056;3.656;2023-02-15T05:33:13;3.20;99.90
27544;DHT22;17996;51.056;3.656;2023-02-15T05:35:39;3.20;99.90
27544;DHT22;17996;51.056;3.656;2023-02-15T05:38:04;3.20;99.90
27544;DHT22;17996;51.056;3.656;2023-02-15T05:40:30;3.20;99.90
27544;DHT22;17996;51.056;3.656;2023-02-15T05:42:56;3.20;99.90
27544;DHT22;17996;51.056;3.656;2023-02-15T05:45:22;3.20;99.90
27544;DHT22;17996;51.056;3.656;2023-02-15T05:47:48;3.20;99.90
27544;DHT22;17996;51.056;3.656;2023-02-15T05:50:13;3.20;99.90
27544;DHT22;17996;51.056;3.656;2023-02-15T05:52:39;3.20;99.90
27544;DHT22;17996;51.056;3.656;2023-02-15T05:55:05;3.20;99.90
27544;DHT22;17996;51.056;3.656;2023-02-15T05:57:31;3.20;99.90
27544;DHT22;17996;51.056;3.656;2023-02-15T05:59:57;3.20;99.90
27544;DHT22;17996;51.056;3.656;2023-02-15T06:02:22;3.20;99.90
27544;DHT22;17996;51.056;3.656;2023-02-15T06:04:48;3.20;99.90
27544;DHT22;17996;51.056;3.656;2023-02-15T06:07:14;3.20;99.90
27544;DHT22;17996;51.056;3.656;2023-02-15T06:09:39;3.40;99.90
27544;DHT22;17996;51.056;3.656;2023-02-15T06:12:05;3.30;99.90
27544;DHT22;17996;51.056;3.656;2023-02-15T06:14:31;3.20;99.90
27544;DHT22;17996;51.056;3.656;2023-02-15T06:16:56;3.20;99.90
27544;DHT22;17996;51.056;3.656;2023-02-15T06:19:22;3.20;99.90
27544;DHT22;17996;51.056;3.656;2023-02-15T06:21:48;3.20;99.90
27544;DHT22;17996;51.056;3.656;2023-02-15T06:24:14;3.20;99.90
27544;DHT22;17996;51.056;3.656;2023-02-15T06:26:40;3.20;99.90
27544;DHT22;17996;51.056;3.656;2023-02-15T06:29:05;3.20;99.90
27544;DHT22;17996;51.056;3.656;2023-02-15T06:31:31;3.20;99.90
27544;DHT22;17996;51.056;3.656;2023-02-15T06:33:57;3.20;99.90
27544;DHT22;17996;51.056;3.656;2023-02-15T06:36:27;3.20;99.90
27544;DHT22;17996;51.056;3.656;2023-02-15T06:38:54;3.20;99.90
27544;DHT22;17996;51.056;3.656;2023-02-15T06:41:20;3.20;99.90
27544;DHT22;17996;51.056;3.656;2023-02-15T06:43:46;3.10;99.90
27544;DHT22;17996;51.056;3.656;2023-02-15T06:46:12;3.20;99.90
27544;DHT22;17996;51.056;3.656;2023-02-15T06:48:37;3.20;99.90
27544;DHT22;17996;51.056;3.656;2023-02-15T06:51:03;3.20;99.90
27544;DHT22;17996;51.056;3.656;2023-02-15T06:53:29;3.20;99.90
27544;DHT22;17996;51.056;3.656;2023-02-15T06:56:05;3.20;99.90
27544;DHT22;17996;51.056;3.656;2023-02-15T06:58:41;3.20;99.90
27544;DHT22;17996;51.056;3.656;2023-02-15T07:01:08;3.20;99.90
27544;DHT22;17996;51.056;3.656;2023-02-15T07:03:34;3.20;99.90
27544;DHT22;17996;51.056;3.656;2023-02-15T07:06:02;3.20;99.90
27544;DHT22;17996;51.056;3.656;2023-02-15T07:08:28;3.20;99.90
27544;DHT22;17996;51.056;3.656;2023-02-15T07:10:55;3.20;99.90
27544;DHT22;17996;51.056;3.656;2023-02-15T07:13:41;3.20;99.90
27544;DHT22;17996;51.056;3.656;2023-02-15T07:16:08;3.20;99.90
27544;DHT22;17996;51.056;3.656;2023-02-15T07:18:35;3.10;99.90
27544;DHT22;17996;51.056;3.656;2023-02-15T07:21:00;3.20;99.90
27544;DHT22;17996;51.056;3.656;2023-02-15T07:23:26;3.20;99.90
27544;DHT22;17996;51.056;3.656;2023-02-15T07:25:59;3.20;99.90
27544;DHT22;17996;51.056;3.656;2023-02-15T07:28:25;3.20;99.90
27544;DHT22;17996;51.056;3.656;2023-02-15T07:30:51;3.20;99.90
27544;DHT22;17996;51.056;3.656;2023-02-15T07:33:17;3.30;99.90
27544;DHT22;17996;51.056;3.656;2023-02-15T07:35:51;3.30;99.90
27544;DHT22;17996;51.056;3.656;2023-02-15T07:38:17;3.30;99.90
27544;DHT22;17996;51.056;3.656;2023-02-15T07:40:44;3.30;99.90
27544;DHT22;17996;51.056;3.656;2023-02-15T07:43:10;3.30;99.90
27544;DHT22;17996;51.056;3.656;2023-02-15T07:45:36;3.40;99.90
27544;DHT22;17996;51.056;3.656;2023-02-15T07:48:03;3.60;99.90
27544;DHT22;17996;51.056;3.656;2023-02-15T07:50:29;3.40;99.90
27544;DHT22;17996;51.056;3.656;2023-02-15T07:52:54;3.40;99.90
27544;DHT22;17996;51.056;3.656;2023-02-15T07:55:20;3.40;99.90
27544;DHT22;17996;51.056;3.656;2023-02-15T07:57:47;3.40;99.90
27544;DHT22;17996;51.056;3.656;2023-02-15T08:00:15;3.50;99.90
27544;DHT22;17996;51.056;3.656;2023-02-15T08:02:47;3.50;99.90
27544;DHT22;17996;51.056;3.656;2023-02-15T08:05:13;3.60;99.90
27544;DHT22;17996;51.056;3.656;2023-02-15T08:07:38;3.60;99.90
27544;DHT22;17996;51.056;3.656;2023-02-15T08:10:04;3.70;99.90
27544;DHT22;17996;51.056;3.656;2023-02-15T08:12:30;3.70;99.90
27544;DHT22;17996;51.056;3.656;2023-02-15T08:14:56;3.80;99.90
27544;DHT22;17996;51.056;3.656;2023-02-15T08:17:21;3.90;99.90
27544;DHT22;17996;51.056;3.656;2023-02-15T08:19:48;4.00;99.90
27544;DHT22;17996;51.056;3.656;2023-02-15T08:22:14;4.00;99.90
27544;DHT22;17996;51.056;3.656;2023-02-15T08:24:40;4.10;99.90
27544;DHT22;17996;51.056;3.656;2023-02-15T08:27:08;4.20;99.90
27544;DHT22;17996;51.056;3.656;2023-02-15T08:29:36;4.20;99.90
27544;DHT22;17996;51.056;3.656;2023-02-15T08:32:08;4.30;99.90
27544;DHT22;17996;51.056;3.656;2023-02-15T08:34:38;4.40;99.90
27544;DHT22;17996;51.056;3.656;2023-02-15T08:37:04;4.50;99.90
27544;DHT22;17996;51.056;3.656;2023-02-15T08:39:31;4.40;99.90
27544;DHT22;17996;51.056;3.656;2023-02-15T08:41:57;4.60;99.90
27544;DHT22;17996;51.056;3.656;2023-02-15T08:44:22;4.80;99.90
27544;DHT22;17996;51.056;3.656;2023-02-15T08:46:49;4.70;99.90
27544;DHT22;17996;51.056;3.656;2023-02-15T08:49:21;4.80;99.90
27544;DHT22;17996;51.056;3.656;2023-02-15T08:51:48;4.90;99.90
27544;DHT22;17996;51.056;3.656;2023-02-15T08:54:17;5.20;99.90
27544;DHT22;17996;51.056;3.656;2023-02-15T08:56:44;5.20;99.90
27544;DHT22;17996;51.056;3.656;2023-02-15T08:59:21;5.30;99.90
27544;DHT22;17996;51.056;3.656;2023-02-15T09:01:48;5.40;99.90
27544;DHT22;17996;51.056;3.656;2023-02-15T09:04:15;5.50;99.90
27544;DHT22;17996;51.056;3.656;2023-02-15T09:06:43;5.60;99.90
27544;DHT22;17996;51.056;3.656;2023-02-15T09:09:10;5.90;99.90
27544;DHT22;17996;51.056;3.656;2023-02-15T09:11:39;5.80;99.90
27544;DHT22;17996;51.056;3.656;2023-02-15T09:14:08;5.80;99.90
27544;DHT22;17996;51.056;3.656;2023-02-15T09:16:36;6.00;99.90
27544;DHT22;17996;51.056;3.656;2023-02-15T09:19:03;6.00;99.90
27544;DHT22;17996;51.056;3.656;2023-02-15T09:21:36;6.20;99.90
27544;DHT22;17996;51.056;3.656;2023-02-15T09:24:05;6.10;99.90
27544;DHT22;17996;51.056;3.656;2023-02-15T09:26:33;6.10;99.90
27544;DHT22;17996;51.056;3.656;2023-02-15T09:29:00;6.20;99.90
27544;DHT22;17996;51.056;3.656;2023-02-15T09:31:29;6.20;99.90
27544;DHT22;17996;51.056;3.656;2023-02-15T09:33:55;6.30;99.90
27544;DHT22;17996;51.056;3.656;2023-02-15T09:36:22;6.30;99.90
27544;DHT22;17996;51.056;3.656;2023-02-15T09:38:55;6.40;99.90
27544;DHT22;17996;51.056;3.656;2023-02-15T09:47:20;6.60;99.90
27544;DHT22;17996;51.056;3.656;2023-02-15T09:52:57;6.80;99.90
27544;DHT22;17996;51.056;3.656;2023-02-15T10:03:33;6.90;99.90
27544;DHT22;17996;51.056;3.656;2023-02-15T10:06:29;7.00;99.90
27544;DHT22;17996;51.056;3.656;2023-02-15T10:18:05;7.30;99.90
27544;DHT22;17996;51.056;3.656;2023-02-15T10:24:08;7.40;99.90
27544;DHT22;17996;51.056;3.656;2023-02-15T10:26:43;7.40;99.90
27544;DHT22;17996;51.056;3.656;2023-02-15T10:31:49;7.50;99.90
27544;DHT22;17996;51.056;3.656;2023-02-15T10:34:19;7.60;99.90
27544;DHT22;17996;51.056;3.656;2023-02-15T10:37:01;7.70;99.90
27544;DHT22;17996;51.056;3.656;2023-02-15T10:40:11;7.80;99.90
27544;DHT22;17996;51.056;3.656;2023-02-15T10:42:54;7.90;99.90
27544;DHT22;17996;51.056;3.656;2023-02-15T10:45:55;7.90;99.90
27544;DHT22;17996;51.056;3.656;2023-02-15T10:57:56;8.10;99.90
27544;DHT22;17996;51.056;3.656;2023-02-15T11:00:39;8.10;99.90
27544;DHT22;17996;51.056;3.656;2023-02-15T11:06:08;8.20;99.90
27544;DHT22;17996;51.056;3.656;2023-02-15T11:08:52;8.30;99.90
27544;DHT22;17996;51.056;3.656;2023-02-15T11:11:29;8.30;99.90
27544;DHT22;17996;51.056;3.656;2023-02-15T11:14:03;8.40;99.90
27544;DHT22;17996;51.056;3.656;2023-02-15T11:16:37;8.40;99.90
27544;DHT22;17996;51.056;3.656;2023-02-15T11:19:11;8.40;99.90
27544;DHT22;17996;51.056;3.656;2023-02-15T11:21:52;8.50;99.90
27544;DHT22;17996;51.056;3.656;2023-02-15T11:24:20;8.40;99.90
27544;DHT22;17996;51.056;3.656;2023-02-15T11:27:36;8.50;99.90
27544;DHT22;17996;51.056;3.656;2023-02-15T11:29:57;8.60;99.90
27544;DHT22;17996;51.056;3.656;2023-02-15T11:32:27;8.70;99.90
27544;DHT22;17996;51.056;3.656;2023-02-15T11:40:26;9.20;99.90
27544;DHT22;17996;51.056;3.656;2023-02-15T11:42:56;9.20;99.90
27544;DHT22;17996;51.056;3.656;2023-02-15T11:45:29;9.30;99.90
27544;DHT22;17996;51.056;3.656;2023-02-15T11:47:57;9.30;99.90
27544;DHT22;17996;51.056;3.656;2023-02-15T11:50:25;9.40;99.90
27544;DHT22;17996;51.056;3.656;2023-02-15T11:52:53;9.50;99.90
27544;DHT22;17996;51.056;3.656;2023-02-15T11:55:22;9.50;99.90
27544;DHT22;17996;51.056;3.656;2023-02-15T11:57:57;9.50;99.90
27544;DHT22;17996;51.056;3.656;2023-02-15T12:00:42;9.60;99.90
27544;DHT22;17996;51.056;3.656;2023-02-15T12:03:17;9.60;99.90
27544;DHT22;17996;51.056;3.656;2023-02-15T12:05:45;9.70;99.90
27544;DHT22;17996;51.056;3.656;2023-02-15T12:08:16;9.80;99.90
27544;DHT22;17996;51.056;3.656;2023-02-15T12:11:09;10.00;99.90
27544;DHT22;17996;51.056;3.656;2023-02-15T12:13:59;10.20;99.90
27544;DHT22;17996;51.056;3.656;2023-02-15T12:16:31;10.30;99.90
27544;DHT22;17996;51.056;3.656;2023-02-15T12:18:59;10.40;99.90
27544;DHT22;17996;51.056;3.656;2023-02-15T12:21:32;10.50;99.90
27544;DHT22;17996;51.056;3.656;2023-02-15T12:24:08;10.60;99.90
27544;DHT22;17996;51.056;3.656;2023-02-15T12:26:35;10.80;99.90
27544;DHT22;17996;51.056;3.656;2023-02-15T12:29:12;10.90;99.90
27544;DHT22;17996;51.056;3.656;2023-02-15T12:31:43;11.10;99.90
27544;DHT22;17996;51.056;3.656;2023-02-15T12:34:12;11.10;99.90
27544;DHT22;17996;51.056;3.656;2023-02-15T12:36:45;11.20;99.90
27544;DHT22;17996;51.056;3.656;2023-02-15T12:39:19;11.20;99.90
27544;DHT22;17996;51.056;3.656;2023-02-15T12:44:35;11.50;99.90
27544;DHT22;17996;51.056;3.656;2023-02-15T12:47:20;11.30;99.90
27544;DHT22;17996;51.056;3.656;2023-02-15T12:50:13;11.30;99.90
27544;DHT22;17996;51.056;3.656;2023-02-15T12:52:43;11.10;99.90
27544;DHT22;17996;51.056;3.656;2023-02-15T12:55:32;11.00;99.90
27544;DHT22;17996;51.056;3.656;2023-02-15T12:58:07;11.00;99.90
27544;DHT22;17996;51.056;3.656;2023-02-15T13:00:32;11.00;99.90
27544;DHT22;17996;51.056;3.656;2023-02-15T13:02:59;11.00;99.90
27544;DHT22;17996;51.056;3.656;2023-02-15T13:05:41;11.00;99.90
27544;DHT22;17996;51.056;3.656;2023-02-15T13:08:20;10.90;99.90
27544;DHT22;17996;51.056;3.656;2023-02-15T13:11:05;10.80;99.90
27544;DHT22;17996;51.056;3.656;2023-02-15T13:13:33;10.80;99.90
27544;DHT22;17996;51.056;3.656;2023-02-15T13:16:11;10.70;99.90
27544;DHT22;17996;51.056;3.656;2023-02-15T13:18:41;10.70;99.90
27544;DHT22;17996;51.056;3.656;2023-02-15T13:21:18;10.60;99.90
27544;DHT22;17996;51.056;3.656;2023-02-15T13:23:52;10.60;99.90
27544;DHT22;17996;51.056;3.656;2023-02-15T13:26:20;10.70;99.90
27544;DHT22;17996;51.056;3.656;2023-02-15T13:28:49;10.70;99.90
27544;DHT22;17996;51.056;3.656;2023-02-15T13:31:20;10.60;99.90
27544;DHT22;17996;51.056;3.656;2023-02-15T13:33:50;10.70;99.90
27544;DHT22;17996;51.056;3.656;2023-02-15T13:36:58;10.70;99.90
27544;DHT22;17996;51.056;3.656;2023-02-15T13:44:37;10.70;99.90
27544;DHT22;17996;51.056;3.656;2023-02-15T13:52:27;10.80;99.90
27544;DHT22;17996;51.056;3.656;2023-02-15T14:06:12;11.10;99.90
27544;DHT22;17996;51.056;3.656;2023-02-15T14:22:02;11.40;99.90
27544;DHT22;17996;51.056;3.656;2023-02-15T14:24:51;11.40;99.90
27544;DHT22;17996;51.056;3.656;2023-02-15T14:27:52;11.50;99.90
27544;DHT22;17996;51.056;3.656;2023-02-15T14:30:21;11.50;99.90
27544;DHT22;17996;51.056;3.656;2023-02-15T14:32:53;11.50;99.90
27544;DHT22;17996;51.056;3.656;2023-02-15T14:35:26;11.60;99.90
27544;DHT22;17996;51.056;3.656;2023-02-15T14:37:54;11.60;99.90
27544;DHT22;17996;51.056;3.656;2023-02-15T14:40:39;11.60;99.90
27544;DHT22;17996;51.056;3.656;2023-02-15T14:49:12;11.60;99.90
27544;DHT22;17996;51.056;3.656;2023-02-15T14:56:44;11.60;99.90
27544;DHT22;17996;51.056;3.656;2023-02-15T14:59:15;11.70;99.90
27544;DHT22;17996;51.056;3.656;2023-02-15T15:01:42;11.80;99.90
27544;DHT22;17996;51.056;3.656;2023-02-15T15:09:41;11.90;99.90
27544;DHT22;17996;51.056;3.656;2023-02-15T15:14:43;11.80;99.90
27544;DHT22;17996;51.056;3.656;2023-02-15T15:20:11;11.70;99.90
27544;DHT22;17996;51.056;3.656;2023-02-15T15:22:40;11.70;99.90
27544;DHT22;17996;51.056;3.656;2023-02-15T15:28:06;11.60;99.90
27544;DHT22;17996;51.056;3.656;2023-02-15T15:43:59;11.60;99.90
27544;DHT22;17996;51.056;3.656;2023-02-15T15:49:22;11.60;99.90
27544;DHT22;17996;51.056;3.656;2023-02-15T15:51:49;11.50;99.90
27544;DHT22;17996;51.056;3.656;2023-02-15T15:54:20;11.50;99.90
27544;DHT22;17996;51.056;3.656;2023-02-15T15:56:58;11.50;99.90
27544;DHT22;17996;51.056;3.656;2023-02-15T15:59:32;11.60;99.90
27544;DHT22;17996;51.056;3.656;2023-02-15T16:02:12;11.30;99.90
27544;DHT22;17996;51.056;3.656;2023-02-15T16:04:38;11.30;99.90
27544;DHT22;17996;51.056;3.656;2023-02-15T16:12:22;11.10;99.90
27544;DHT22;17996;51.056;3.656;2023-02-15T16:14:48;11.10;99.90
27544;DHT22;17996;51.056;3.656;2023-02-15T16:17:26;11.00;99.90
27544;DHT22;17996;51.056;3.656;2023-02-15T16:20:02;11.10;99.90
27544;DHT22;17996;51.056;3.656;2023-02-15T16:22:28;10.90;99.90
27544;DHT22;17996;51.056;3.656;2023-02-15T16:25:19;10.80;99.90
27544;DHT22;17996;51.056;3.656;2023-02-15T16:27:50;10.80;99.90
27544;DHT22;17996;51.056;3.656;2023-02-15T16:30:34;10.80;99.90
27544;DHT22;17996;51.056;3.656;2023-02-15T16:35:36;10.80;99.90
27544;DHT22;17996;51.056;3.656;2023-02-15T16:38:03;10.80;99.90
27544;DHT22;17996;51.056;3.656;2023-02-15T16:40:37;10.80;99.90
27544;DHT22;17996;51.056;3.656;2023-02-15T16:43:10;10.70;99.90
27544;DHT22;17996;51.056;3.656;2023-02-15T16:45:37;10.70;99.90
27544;DHT22;17996;51.056;3.656;2023-02-15T16:48:08;10.70;99.90
27544;DHT22;17996;51.056;3.656;2023-02-15T16:50:37;10.70;99.90
27544;DHT22;17996;51.056;3.656;2023-02-15T16:53:05;10.70;99.90
27544;DHT22;17996;51.056;3.656;2023-02-15T16:55:37;10.60;99.90
27544;DHT22;17996;51.056;3.656;2023-02-15T16:58:05;10.50;99.90
27544;DHT22;17996;51.056;3.656;2023-02-15T17:00:35;10.40;99.90
27544;DHT22;17996;51.056;3.656;2023-02-15T17:03:12;10.40;99.90
27544;DHT22;17996;51.056;3.656;2023-02-15T17:05:47;10.30;99.90
27544;DHT22;17996;51.056;3.656;2023-02-15T17:08:25;10.20;99.90
27544;DHT22;17996;51.056;3.656;2023-02-15T17:13:29;10.10;99.90
27544;DHT22;17996;51.056;3.656;2023-02-15T17:18:23;9.80;99.90
27544;DHT22;17996;51.056;3.656;2023-02-15T17:20:51;9.90;99.90
27544;DHT22;17996;51.056;3.656;2023-02-15T17:23:44;9.80;99.90
27544;DHT22;17996;51.056;3.656;2023-02-15T17:29:23;9.60;99.90
27544;DHT22;17996;51.056;3.656;2023-02-15T17:31:49;9.50;99.90
27544;DHT22;17996;51.056;3.656;2023-02-15T17:37:59;9.50;99.90
27544;DHT22;17996;51.056;3.656;2023-02-15T17:42:44;9.40;99.90
27544;DHT22;17996;51.056;3.656;2023-02-15T17:45:10;9.40;99.90
27544;DHT22;17996;51.056;3.656;2023-02-15T17:47:36;9.50;99.90
27544;DHT22;17996;51.056;3.656;2023-02-15T17:50:03;9.30;99.90
27544;DHT22;17996;51.056;3.656;2023-02-15T17:52:30;9.30;99.90
27544;DHT22;17996;51.056;3.656;2023-02-15T17:54:56;9.30;99.90
27544;DHT22;17996;51.056;3.656;2023-02-15T17:57:40;9.20;99.90
27544;DHT22;17996;51.056;3.656;2023-02-15T18:00:07;9.20;99.90
27544;DHT22;17996;51.056;3.656;2023-02-15T18:02:52;9.10;99.90
27544;DHT22;17996;51.056;3.656;2023-02-15T18:05:36;9.10;99.90
27544;DHT22;17996;51.056;3.656;2023-02-15T18:08:26;9.10;99.90
27544;DHT22;17996;51.056;3.656;2023-02-15T18:11:11;9.00;99.90
27544;DHT22;17996;51.056;3.656;2023-02-15T18:13:55;9.00;99.90
27544;DHT22;17996;51.056;3.656;2023-02-15T18:16:27;9.00;99.90
27544;DHT22;17996;51.056;3.656;2023-02-15T18:18:54;8.90;99.90
27544;DHT22;17996;51.056;3.656;2023-02-15T18:21:20;8.90;99.90
27544;DHT22;17996;51.056;3.656;2023-02-15T18:23:46;8.80;99.90
27544;DHT22;17996;51.056;3.656;2023-02-15T18:26:18;8.80;99.90
27544;DHT22;17996;51.056;3.656;2023-02-15T18:28:44;8.80;99.90
27544;DHT22;17996;51.056;3.656;2023-02-15T18:31:10;8.80;99.90
27544;DHT22;17996;51.056;3.656;2023-02-15T18:33:39;8.80;99.90
27544;DHT22;17996;51.056;3.656;2023-02-15T18:36:08;8.80;99.90
27544;DHT22;17996;51.056;3.656;2023-02-15T18:38:37;8.70;99.90
27544;DHT22;17996;51.056;3.656;2023-02-15T18:41:03;8.60;99.90
27544;DHT22;17996;51.056;3.656;2023-02-15T18:43:30;8.60;99.90
27544;DHT22;17996;51.056;3.656;2023-02-15T18:45:55;8.70;99.90
27544;DHT22;17996;51.056;3.656;2023-02-15T18:48:21;8.60;99.90
27544;DHT22;17996;51.056;3.656;2023-02-15T18:50:47;8.50;99.90
27544;DHT22;17996;51.056;3.656;2023-02-15T18:53:19;8.50;99.90
27544;DHT22;17996;51.056;3.656;2023-02-15T18:55:46;8.50;99.90
27544;DHT22;17996;51.056;3.656;2023-02-15T18:58:20;8.60;99.90
27544;DHT22;17996;51.056;3.656;2023-02-15T19:00:47;8.50;99.90